sensor_id;sensor_type;location;lat;lon;timestamp;temperature;humidity
17284;DHT22;8760;52.248;20.952;2023-04-25T00:00:51;12.60;99.90
17284;DHT22;8760;52.248;20.952;2023-04-25T00:03:20;12.60;99.90
17284;DHT22;8760;52.248;20.952;2023-04-25T00:05:47;12.60;99.90
17284;DHT22;8760;52.248;20.952;2023-04-25T00:08:14;12.50;99.90
17284;DHT22;8760;52.248;20.952;2023-04-25T00:10:41;12.50;99.90
17284;DHT22;8760;52.248;20.952;2023-04-25T00:13:08;12.50;99.90
17284;DHT22;8760;52.248;20.952;2023-04-25T00:15:36;12.40;1.00
17284;DHT22;8760;52.248;20.952;2023-04-25T00:18:04;12.50;1.00
17284;DHT22;8760;52.248;20.952;2023-04-25T00:20:33;12.40;1.00
17284;DHT22;8760;52.248;20.952;2023-04-25T00:23:01;12.50;1.00
17284;DHT22;8760;52.248;20.952;2023-04-25T00:25:28;12.50;1.00
17284;DHT22;8760;52.248;20.952;2023-04-25T00:27:55;12.50;1.00
17284;DHT22;8760;52.248;20.952;2023-04-25T00:30:22;12.40;1.00
17284;DHT22;8760;52.248;20.952;2023-04-25T00:32:49;12.40;1.00
17284;DHT22;8760;52.248;20.952;2023-04-25T00:35:16;12.50;1.00
17284;DHT22;8760;52.248;20.952;2023-04-25T00:37:44;12.50;1.00
17284;DHT22;8760;52.248;20.952;2023-04-25T00:40:11;12.40;1.00
17284;DHT22;8760;52.248;20.952;2023-04-25T00:42:39;12.40;1.00
17284;DHT22;8760;52.248;20.952;2023-04-25T00:45:10;12.40;1.00
17284;DHT22;8760;52.248;20.952;2023-04-25T00:47:40;12.40;1.00
17284;DHT22;8760;52.248;20.952;2023-04-25T00:50:08;12.40;1.00
17284;DHT22;8760;52.248;20.952;2023-04-25T00:52:35;12.30;1.00
17284;DHT22;8760;52.248;20.952;2023-04-25T00:55:04;12.40;1.00
17284;DHT22;8760;52.248;20.952;2023-04-25T00:57:32;12.40;1.00
17284;DHT22;8760;52.248;20.952;2023-04-25T00:59:59;12.40;1.00
17284;DHT22;8760;52.248;20.952;2023-04-25T01:02:26;12.50;1.00
17284;DHT22;8760;52.248;20.952;2023-04-25T01:04:53;12.40;1.00
17284;DHT22;8760;52.248;20.952;2023-04-25T01:07:20;12.40;1.00
17284;DHT22;8760;52.248;20.952;2023-04-25T01:09:48;12.40;1.00
17284;DHT22;8760;52.248;20.952;2023-04-25T01:12:16;12.40;1.00
17284;DHT22;8760;52.248;20.952;2023-04-25T01:14:43;12.30;1.00
17284;DHT22;8760;52.248;20.952;2023-04-25T01:17:11;12.30;1.00
17284;DHT22;8760;52.248;20.952;2023-04-25T01:19:38;12.30;1.00
17284;DHT22;8760;52.248;20.952;2023-04-25T01:22:06;12.30;25.80
17284;DHT22;8760;52.248;20.952;2023-04-25T01:24:35;12.20;58.00
17284;DHT22;8760;52.248;20.952;2023-04-25T01:27:03;12.20;75.20
17284;DHT22;8760;52.248;20.952;2023-04-25T01:29:33;12.20;99.90
17284;DHT22;8760;52.248;20.952;2023-04-25T01:32:01;12.10;99.90
17284;DHT22;8760;52.248;20.952;2023-04-25T01:34:28;12.00;99.90
17284;DHT22;8760;52.248;20.952;2023-04-25T01:36:56;12.00;99.90
17284;DHT22;8760;52.248;20.952;2023-04-25T01:39:24;11.90;99.90
17284;DHT22;8760;52.248;20.952;2023-04-25T01:41:51;11.90;99.90
17284;DHT22;8760;52.248;20.952;2023-04-25T01:44:18;11.90;99.90
17284;DHT22;8760;52.248;20.952;2023-04-25T01:46:45;11.90;99.90
17284;DHT22;8760;52.248;20.952;2023-04-25T01:49:12;11.90;99.90
17284;DHT22;8760;52.248;20.952;2023-04-25T01:51:39;11.90;99.90
17284;DHT22;8760;52.248;20.952;2023-04-25T01:54:07;11.80;99.90
17284;DHT22;8760;52.248;20.952;2023-04-25T01:56:38;11.80;99.90
17284;DHT22;8760;52.248;20.952;2023-04-25T01:59:05;11.70;99.90
17284;DHT22;8760;52.248;20.952;2023-04-25T02:01:32;11.70;99.90
17284;DHT22;8760;52.248;20.952;2023-04-25T02:03:58;11.70;99.90
17284;DHT22;8760;52.248;20.952;2023-04-25T02:06:25;11.70;99.90
17284;DHT22;8760;52.248;20.952;2023-04-25T02:08:52;11.70;99.90
17284;DHT22;8760;52.248;20.952;2023-04-25T02:11:19;11.70;99.90
17284;DHT22;8760;52.248;20.952;2023-04-25T02:13:48;11.70;99.90
17284;DHT22;8760;52.248;20.952;2023-04-25T02:16:14;11.70;99.90
17284;DHT22;8760;52.248;20.952;2023-04-25T02:18:41;11.70;99.90
17284;DHT22;8760;52.248;20.952;2023-04-25T02:21:08;11.70;99.90
17284;DHT22;8760;52.248;20.952;2023-04-25T02:23:35;11.70;99.90
17284;DHT22;8760;52.248;20.952;2023-04-25T02:26:02;11.70;99.90
17284;DHT22;8760;52.248;20.952;2023-04-25T02:28:29;11.70;99.90
17284;DHT22;8760;52.248;20.952;2023-04-25T02:30:57;11.60;99.90
17284;DHT22;8760;52.248;20.952;2023-04-25T02:33:24;11.60;99.90
17284;DHT22;8760;52.248;20.952;2023-04-25T02:35:51;11.50;99.90
17284;DHT22;8760;52.248;20.952;2023-04-25T02:38:18;11.50;99.90
17284;DHT22;8760;52.248;20.952;2023-04-25T02:40:44;11.40;99.90
17284;DHT22;8760;52.248;20.952;2023-04-25T02:43:11;11.50;99.90
17284;DHT22;8760;52.248;20.952;2023-04-25T02:45:38;11.40;99.90
17284;DHT22;8760;52.248;20.952;2023-04-25T02:48:06;11.40;99.90
17284;DHT22;8760;52.248;20.952;2023-04-25T02:50:33;11.40;99.90
17284;DHT22;8760;52.248;20.952;2023-04-25T02:53:00;11.40;99.90
17284;DHT22;8760;52.248;20.952;2023-04-25T02:55:27;11.40;99.90
17284;DHT22;8760;52.248;20.952;2023-04-25T02:57:54;11.30;99.90
17284;DHT22;8760;52.248;20.952;2023-04-25T03:00:21;11.30;99.90
17284;DHT22;8760;52.248;20.952;2023-04-25T03:02:48;11.30;99.90
17284;DHT22;8760;52.248;20.952;2023-04-25T03:05:17;11.30;99.90
17284;DHT22;8760;52.248;20.952;2023-04-25T03:07:45;11.30;99.90
17284;DHT22;8760;52.248;20.952;2023-04-25T03:10:12;11.30;99.90
17284;DHT22;8760;52.248;20.952;2023-04-25T03:12:39;11.30;99.90
17284;DHT22;8760;52.248;20.952;2023-04-25T03:15:06;11.30;99.90
17284;DHT22;8760;52.248;20.952;2023-04-25T03:17:33;11.30;99.90
17284;DHT22;8760;52.248;20.952;2023-04-25T03:20:00;11.20;99.90
17284;DHT22;8760;52.248;20.952;2023-04-25T03:22:31;11.30;99.90
17284;DHT22;8760;52.248;20.952;2023-04-25T03:24:58;11.20;99.90
17284;DHT22;8760;52.248;20.952;2023-04-25T03:27:24;11.30;99.90
17284;DHT22;8760;52.248;20.952;2023-04-25T03:29:51;11.30;99.90
17284;DHT22;8760;52.248;20.952;2023-04-25T03:32:18;11.30;99.90
17284;DHT22;8760;52.248;20.952;2023-04-25T03:34:45;11.30;99.90
17284;DHT22;8760;52.248;20.952;2023-04-25T03:37:12;11.30;99.90
17284;DHT22;8760;52.248;20.952;2023-04-25T03:39:40;11.30;99.90
17284;DHT22;8760;52.248;20.952;2023-04-25T03:42:07;11.30;99.90
17284;DHT22;8760;52.248;20.952;2023-04-25T03:44:34;11.40;99.90
17284;DHT22;8760;52.248;20.952;2023-04-25T03:47:01;11.40;99.90
17284;DHT22;8760;52.248;20.952;2023-04-25T03:49:27;11.40;99.90
17284;DHT22;8760;52.248;20.952;2023-04-25T03:51:54;11.40;99.90
17284;DHT22;8760;52.248;20.952;2023-04-25T03:54:21;11.40;99.90
17284;DHT22;8760;52.248;20.952;2023-04-25T03:56:49;11.40;99.90
17284;DHT22;8760;52.248;20.952;2023-04-25T03:59:16;11.50;99.90
17284;DHT22;8760;52.248;20.952;2023-04-25T04:01:43;11.50;99.90
17284;DHT22;8760;52.248;20.952;2023-04-25T04:04:10;11.50;99.90
17284;DHT22;8760;52.248;20.952;2023-04-25T04:06:37;11.50;99.90
17284;DHT22;8760;52.248;20.952;2023-04-25T04:09:04;11.50;99.90
17284;DHT22;8760;52.248;20.952;2023-04-25T04:11:35;11.50;99.90
17284;DHT22;8760;52.248;20.952;2023-04-25T04:14:05;11.50;99.90
17284;DHT22;8760;52.248;20.952;2023-04-25T04:16:32;11.50;99.90
17284;DHT22;8760;52.248;20.952;2023-04-25T04:18:59;11.60;99.90
17284;DHT22;8760;52.248;20.952;2023-04-25T04:21:26;11.50;99.90
17284;DHT22;8760;52.248;20.952;2023-04-25T04:23:53;11.60;99.90
17284;DHT22;8760;52.248;20.952;2023-04-25T04:26:20;11.60;99.90
17284;DHT22;8760;52.248;20.952;2023-04-25T04:28:48;11.60;99.90
17284;DHT22;8760;52.248;20.952;2023-04-25T04:31:17;11.60;99.90
17284;DHT22;8760;52.248;20.952;2023-04-25T04:33:45;11.70;99.90
17284;DHT22;8760;52.248;20.952;2023-04-25T04:36:12;11.60;99.90
17284;DHT22;8760;52.248;20.952;2023-04-25T04:38:39;11.70;99.90
17284;DHT22;8760;52.248;20.952;2023-04-25T04:41:08;11.70;99.90
17284;DHT22;8760;52.248;20.952;2023-04-25T04:43:35;11.60;99.90
17284;DHT22;8760;52.248;20.952;2023-04-25T04:46:02;11.70;99.90
17284;DHT22;8760;52.248;20.952;2023-04-25T04:48:32;11.70;99.90
17284;DHT22;8760;52.248;20.952;2023-04-25T04:51:00;11.70;99.90
17284;DHT22;8760;52.248;20.952;2023-04-25T04:53:27;11.70;99.90
17284;DHT22;8760;52.248;20.952;2023-04-25T04:55:54;11.60;99.90
17284;DHT22;8760;52.248;20.952;2023-04-25T04:58:21;11.60;99.90
17284;DHT22;8760;52.248;20.952;2023-04-25T05:00:49;11.60;99.90
17284;DHT22;8760;52.248;20.952;2023-04-25T05:03:16;11.60;99.90
17284;DHT22;8760;52.248;20.952;2023-04-25T05:05:44;11.60;99.90
17284;DHT22;8760;52.248;20.952;2023-04-25T05:08:11;11.50;99.90
17284;DHT22;8760;52.248;20.952;2023-04-25T05:10:38;11.50;99.90
17284;DHT22;8760;52.248;20.952;2023-04-25T05:13:05;11.40;99.90
17284;DHT22;8760;52.248;20.952;2023-04-25T05:15:32;11.40;99.90
17284;DHT22;8760;52.248;20.952;2023-04-25T05:17:59;11.40;99.90
17284;DHT22;8760;52.248;20.952;2023-04-25T05:20:26;11.40;99.90
17284;DHT22;8760;52.248;20.952;2023-04-25T05:22:55;11.50;99.90
17284;DHT22;8760;52.248;20.952;2023-04-25T05:25:22;11.40;99.90
17284;DHT22;8760;52.248;20.952;2023-04-25T05:27:50;11.50;99.90
17284;DHT22;8760;52.248;20.952;2023-04-25T05:30:17;11.50;99.90
17284;DHT22;8760;52.248;20.952;2023-04-25T05:32:45;11.40;99.90
17284;DHT22;8760;52.248;20.952;2023-04-25T05:35:12;11.40;99.90
17284;DHT22;8760;52.248;20.952;2023-04-25T05:37:39;11.40;99.90
17284;DHT22;8760;52.248;20.952;2023-04-25T05:40:08;11.40;99.90
17284;DHT22;8760;52.248;20.952;2023-04-25T05:42:35;11.40;99.90
17284;DHT22;8760;52.248;20.952;2023-04-25T05:45:03;11.30;99.90
17284;DHT22;8760;52.248;20.952;2023-04-25T05:47:29;11.30;99.90
17284;DHT22;8760;52.248;20.952;2023-04-25T05:49:56;11.30;99.90
17284;DHT22;8760;52.248;20.952;2023-04-25T05:52:23;11.30;99.90
17284;DHT22;8760;52.248;20.952;2023-04-25T05:54:50;11.30;99.90
17284;DHT22;8760;52.248;20.952;2023-04-25T05:57:23;11.20;99.90
17284;DHT22;8760;52.248;20.952;2023-04-25T05:59:51;11.20;99.90
17284;DHT22;8760;52.248;20.952;2023-04-25T06:02:18;11.30;99.90
17284;DHT22;8760;52.248;20.952;2023-04-25T06:04:45;11.30;99.90
17284;DHT22;8760;52.248;20.952;2023-04-25T06:07:12;11.40;99.90
17284;DHT22;8760;52.248;20.952;2023-04-25T06:09:39;11.30;99.90
17284;DHT22;8760;52.248;20.952;2023-04-25T06:12:06;11.40;99.90
17284;DHT22;8760;52.248;20.952;2023-04-25T06:14:35;11.40;99.90
17284;DHT22;8760;52.248;20.952;2023-04-25T06:17:02;11.40;99.90
17284;DHT22;8760;52.248;20.952;2023-04-25T06:19:32;11.40;99.90
17284;DHT22;8760;52.248;20.952;2023-04-25T06:21:59;11.40;99.90
17284;DHT22;8760;52.248;20.952;2023-04-25T06:24:26;11.40;99.90
17284;DHT22;8760;52.248;20.952;2023-04-25T06:26:53;11.40;99.90
17284;DHT22;8760;52.248;20.952;2023-04-25T06:29:20;11.30;99.90
17284;DHT22;8760;52.248;20.952;2023-04-25T06:31:48;11.30;99.90
17284;DHT22;8760;52.248;20.952;2023-04-25T06:34:15;11.30;99.90
17284;DHT22;8760;52.248;20.952;2023-04-25T06:36:42;11.30;99.90
17284;DHT22;8760;52.248;20.952;2023-04-25T06:39:10;11.30;99.90
17284;DHT22;8760;52.248;20.952;2023-04-25T06:41:37;11.30;99.90
17284;DHT22;8760;52.248;20.952;2023-04-25T06:44:04;11.20;99.90
17284;DHT22;8760;52.248;20.952;2023-04-25T06:46:31;11.10;99.90
17284;DHT22;8760;52.248;20.952;2023-04-25T06:48:59;11.00;99.90
17284;DHT22;8760;52.248;20.952;2023-04-25T06:51:26;10.90;99.90
17284;DHT22;8760;52.248;20.952;2023-04-25T06:53:55;10.80;99.90
17284;DHT22;8760;52.248;20.952;2023-04-25T06:56:22;10.70;99.90
17284;DHT22;8760;52.248;20.952;2023-04-25T06:58:49;10.70;99.90
17284;DHT22;8760;52.248;20.952;2023-04-25T07:01:16;10.70;99.90
17284;DHT22;8760;52.248;20.952;2023-04-25T07:03:43;10.80;99.90
17284;DHT22;8760;52.248;20.952;2023-04-25T07:06:11;10.90;99.90
17284;DHT22;8760;52.248;20.952;2023-04-25T07:08:38;11.10;99.90
17284;DHT22;8760;52.248;20.952;2023-04-25T07:11:05;11.30;99.90
17284;DHT22;8760;52.248;20.952;2023-04-25T07:13:32;11.50;99.90
17284;DHT22;8760;52.248;20.952;2023-04-25T07:15:59;11.70;99.90
17284;DHT22;8760;52.248;20.952;2023-04-25T07:18:26;11.80;99.90
17284;DHT22;8760;52.248;20.952;2023-04-25T07:20:53;12.10;99.90
17284;DHT22;8760;52.248;20.952;2023-04-25T07:23:21;12.30;99.90
17284;DHT22;8760;52.248;20.952;2023-04-25T07:25:48;12.50;99.90
17284;DHT22;8760;52.248;20.952;2023-04-25T07:28:15;12.50;1.00
17284;DHT22;8760;52.248;20.952;2023-04-25T07:30:42;12.40;1.00
17284;DHT22;8760;52.248;20.952;2023-04-25T07:33:09;12.40;1.00
17284;DHT22;8760;52.248;20.952;2023-04-25T07:35:36;12.40;1.00
17284;DHT22;8760;52.248;20.952;2023-04-25T07:38:03;12.40;1.00
17284;DHT22;8760;52.248;20.952;2023-04-25T07:40:33;12.50;1.00
17284;DHT22;8760;52.248;20.952;2023-04-25T07:43:00;12.40;99.90
17284;DHT22;8760;52.248;20.952;2023-04-25T07:45:27;12.50;99.90
17284;DHT22;8760;52.248;20.952;2023-04-25T07:47:54;12.50;99.90
17284;DHT22;8760;52.248;20.952;2023-04-25T07:50:22;12.60;1.00
17284;DHT22;8760;52.248;20.952;2023-04-25T07:52:49;12.70;99.90
17284;DHT22;8760;52.248;20.952;2023-04-25T07:55:16;12.60;99.90
17284;DHT22;8760;52.248;20.952;2023-04-25T07:57:44;12.50;99.90
17284;DHT22;8760;52.248;20.952;2023-04-25T08:00:12;12.20;99.90
17284;DHT22;8760;52.248;20.952;2023-04-25T08:02:40;12.10;1.00
17284;DHT22;8760;52.248;20.952;2023-04-25T08:05:07;12.10;1.00
17284;DHT22;8760;52.248;20.952;2023-04-25T08:07:37;12.00;1.00
17284;DHT22;8760;52.248;20.952;2023-04-25T08:10:05;11.90;1.00
17284;DHT22;8760;52.248;20.952;2023-04-25T08:12:32;11.90;1.00
17284;DHT22;8760;52.248;20.952;2023-04-25T08:15:00;11.90;1.00
17284;DHT22;8760;52.248;20.952;2023-04-25T08:17:27;11.90;1.00
17284;DHT22;8760;52.248;20.952;2023-04-25T08:19:54;11.90;1.00
17284;DHT22;8760;52.248;20.952;2023-04-25T08:22:22;11.90;1.00
17284;DHT22;8760;52.248;20.952;2023-04-25T08:24:49;11.90;1.00
17284;DHT22;8760;52.248;20.952;2023-04-25T08:27:16;11.90;1.00
17284;DHT22;8760;52.248;20.952;2023-04-25T08:29:43;11.80;1.00
17284;DHT22;8760;52.248;20.952;2023-04-25T08:32:11;11.60;1.00
17284;DHT22;8760;52.248;20.952;2023-04-25T08:34:38;11.50;1.00
17284;DHT22;8760;52.248;20.952;2023-04-25T08:37:08;11.50;1.00
17284;DHT22;8760;52.248;20.952;2023-04-25T08:39:35;11.30;1.00
17284;DHT22;8760;52.248;20.952;2023-04-25T08:42:05;11.20;1.00
17284;DHT22;8760;52.248;20.952;2023-04-25T08:44:33;11.20;1.00
17284;DHT22;8760;52.248;20.952;2023-04-25T08:47:02;11.20;1.00
17284;DHT22;8760;52.248;20.952;2023-04-25T08:49:32;11.30;1.00
17284;DHT22;8760;52.248;20.952;2023-04-25T08:52:00;11.30;1.00
17284;DHT22;8760;52.248;20.952;2023-04-25T08:54:28;11.50;1.00
17284;DHT22;8760;52.248;20.952;2023-04-25T08:56:57;11.40;1.00
17284;DHT22;8760;52.248;20.952;2023-04-25T08:59:24;11.30;1.00
17284;DHT22;8760;52.248;20.952;2023-04-25T09:01:51;11.30;1.00
17284;DHT22;8760;52.248;20.952;2023-04-25T09:04:18;11.20;1.00
17284;DHT22;8760;52.248;20.952;2023-04-25T09:06:47;11.10;1.00
17284;DHT22;8760;52.248;20.952;2023-04-25T09:09:14;11.00;1.00
17284;DHT22;8760;52.248;20.952;2023-04-25T09:11:41;10.80;1.00
17284;DHT22;8760;52.248;20.952;2023-04-25T09:14:15;10.90;1.00
17284;DHT22;8760;52.248;20.952;2023-04-25T09:16:58;10.80;1.00
17284;DHT22;8760;52.248;20.952;2023-04-25T09:19:27;10.90;1.00
17284;DHT22;8760;52.248;20.952;2023-04-25T09:21:56;10.90;1.00
17284;DHT22;8760;52.248;20.952;2023-04-25T09:24:34;11.00;1.00
17284;DHT22;8760;52.248;20.952;2023-04-25T09:27:04;11.00;1.00
17284;DHT22;8760;52.248;20.952;2023-04-25T09:29:31;11.00;1.00
17284;DHT22;8760;52.248;20.952;2023-04-25T09:32:14;11.10;1.00
17284;DHT22;8760;52.248;20.952;2023-04-25T09:34:42;11.20;1.00
17284;DHT22;8760;52.248;20.952;2023-04-25T09:37:11;11.10;1.00
17284;DHT22;8760;52.248;20.952;2023-04-25T09:39:39;11.10;1.00
17284;DHT22;8760;52.248;20.952;2023-04-25T09:42:06;11.00;1.00
17284;DHT22;8760;52.248;20.952;2023-04-25T09:44:33;11.00;1.00
17284;DHT22;8760;52.248;20.952;2023-04-25T09:46:59;11.00;1.00
17284;DHT22;8760;52.248;20.952;2023-04-25T09:49:28;11.00;1.00
17284;DHT22;8760;52.248;20.952;2023-04-25T09:51:55;11.00;1.00
17284;DHT22;8760;52.248;20.952;2023-04-25T09:54:25;11.10;76.60
17284;DHT22;8760;52.248;20.952;2023-04-25T09:56:53;11.10;91.40
17284;DHT22;8760;52.248;20.952;2023-04-25T09:59:21;11.10;1.00
17284;DHT22;8760;52.248;20.952;2023-04-25T10:01:49;11.10;1.00
17284;DHT22;8760;52.248;20.952;2023-04-25T10:04:20;11.00;1.00
17284;DHT22;8760;52.248;20.952;2023-04-25T10:06:49;11.00;68.60
17284;DHT22;8760;52.248;20.952;2023-04-25T10:09:20;11.00;1.00
17284;DHT22;8760;52.248;20.952;2023-04-25T10:11:49;11.00;1.00
17284;DHT22;8760;52.248;20.952;2023-04-25T10:14:17;11.00;1.00
17284;DHT22;8760;52.248;20.952;2023-04-25T10:16:45;11.00;1.00
17284;DHT22;8760;52.248;20.952;2023-04-25T10:19:13;10.90;1.00
17284;DHT22;8760;52.248;20.952;2023-04-25T10:21:48;10.80;1.00
17284;DHT22;8760;52.248;20.952;2023-04-25T10:24:16;10.90;1.00
17284;DHT22;8760;52.248;20.952;2023-04-25T10:26:44;10.80;1.00
17284;DHT22;8760;52.248;20.952;2023-04-25T10:29:12;10.80;1.00
17284;DHT22;8760;52.248;20.952;2023-04-25T10:31:45;10.80;4.90
17284;DHT22;8760;52.248;20.952;2023-04-25T10:34:12;10.80;1.00
17284;DHT22;8760;52.248;20.952;2023-04-25T10:36:39;10.80;24.30
17284;DHT22;8760;52.248;20.952;2023-04-25T10:39:06;10.90;9.60
17284;DHT22;8760;52.248;20.952;2023-04-25T10:41:46;10.90;1.00
17284;DHT22;8760;52.248;20.952;2023-04-25T10:44:15;10.90;15.70
17284;DHT22;8760;52.248;20.952;2023-04-25T10:46:44;10.90;1.00
17284;DHT22;8760;52.248;20.952;2023-04-25T10:49:28;10.90;1.00
17284;DHT22;8760;52.248;20.952;2023-04-25T10:52:15;10.90;69.90
17284;DHT22;8760;52.248;20.952;2023-04-25T10:54:42;10.80;99.90
17284;DHT22;8760;52.248;20.952;2023-04-25T10:57:28;10.80;99.90
17284;DHT22;8760;52.248;20.952;2023-04-25T11:00:00;10.90;99.90
17284;DHT22;8760;52.248;20.952;2023-04-25T11:02:31;11.00;26.90
17284;DHT22;8760;52.248;20.952;2023-04-25T11:04:58;11.10;1.00
17284;DHT22;8760;52.248;20.952;2023-04-25T11:07:32;11.10;1.00
17284;DHT22;8760;52.248;20.952;2023-04-25T11:10:02;11.20;1.00
17284;DHT22;8760;52.248;20.952;2023-04-25T11:12:30;11.30;1.00
17284;DHT22;8760;52.248;20.952;2023-04-25T11:15:05;11.30;1.00
17284;DHT22;8760;52.248;20.952;2023-04-25T11:17:33;11.40;1.00
17284;DHT22;8760;52.248;20.952;2023-04-25T11:20:00;11.40;1.00
17284;DHT22;8760;52.248;20.952;2023-04-25T11:22:28;11.60;1.00
17284;DHT22;8760;52.248;20.952;2023-04-25T11:24:55;11.70;99.90
17284;DHT22;8760;52.248;20.952;2023-04-25T11:27:22;11.80;1.00
17284;DHT22;8760;52.248;20.952;2023-04-25T11:29:50;11.80;99.90
17284;DHT22;8760;52.248;20.952;2023-04-25T11:32:18;11.80;1.00
17284;DHT22;8760;52.248;20.952;2023-04-25T11:34:46;11.70;99.90
17284;DHT22;8760;52.248;20.952;2023-04-25T11:37:14;11.70;1.00
17284;DHT22;8760;52.248;20.952;2023-04-25T11:39:44;11.80;99.90
17284;DHT22;8760;52.248;20.952;2023-04-25T11:42:12;11.80;99.90
17284;DHT22;8760;52.248;20.952;2023-04-25T11:44:39;11.70;1.00
17284;DHT22;8760;52.248;20.952;2023-04-25T11:47:07;11.70;99.90
17284;DHT22;8760;52.248;20.952;2023-04-25T11:49:35;11.70;1.00
17284;DHT22;8760;52.248;20.952;2023-04-25T11:52:02;11.70;1.00
17284;DHT22;8760;52.248;20.952;2023-04-25T11:54:29;11.70;99.90
17284;DHT22;8760;52.248;20.952;2023-04-25T11:56:56;11.70;99.90
17284;DHT22;8760;52.248;20.952;2023-04-25T11:59:24;11.70;99.90
17284;DHT22;8760;52.248;20.952;2023-04-25T12:01:52;11.60;1.00
17284;DHT22;8760;52.248;20.952;2023-04-25T12:04:20;11.60;1.00
17284;DHT22;8760;52.248;20.952;2023-04-25T12:06:50;11.70;99.90
17284;DHT22;8760;52.248;20.952;2023-04-25T12:09:19;11.70;1.00
17284;DHT22;8760;52.248;20.952;2023-04-25T12:11:48;11.70;78.10
17284;DHT22;8760;52.248;20.952;2023-04-25T12:14:21;11.70;99.90
17284;DHT22;8760;52.248;20.952;2023-04-25T12:16:50;11.70;1.00
17284;DHT22;8760;52.248;20.952;2023-04-25T12:19:19;11.70;1.00
17284;DHT22;8760;52.248;20.952;2023-04-25T12:21:49;11.70;99.90
17284;DHT22;8760;52.248;20.952;2023-04-25T12:24:17;11.70;99.90
17284;DHT22;8760;52.248;20.952;2023-04-25T12:26:49;11.80;99.90
17284;DHT22;8760;52.248;20.952;2023-04-25T12:29:18;11.70;67.00
17284;DHT22;8760;52.248;20.952;2023-04-25T12:31:45;11.70;1.00
17284;DHT22;8760;52.248;20.952;2023-04-25T12:34:13;11.80;1.00
17284;DHT22;8760;52.248;20.952;2023-04-25T12:36:40;11.80;99.90
17284;DHT22;8760;52.248;20.952;2023-04-25T12:39:08;11.80;1.00
17284;DHT22;8760;52.248;20.952;2023-04-25T12:41:35;11.80;99.90
17284;DHT22;8760;52.248;20.952;2023-04-25T12:44:03;11.80;1.00
17284;DHT22;8760;52.248;20.952;2023-04-25T12:46:30;11.80;1.00
17284;DHT22;8760;52.248;20.952;2023-04-25T12:48:57;11.80;1.00
17284;DHT22;8760;52.248;20.952;2023-04-25T12:51:24;11.80;99.90
17284;DHT22;8760;52.248;20.952;2023-04-25T12:53:53;11.80;1.00
17284;DHT22;8760;52.248;20.952;2023-04-25T12:56:21;11.80;1.00
17284;DHT22;8760;52.248;20.952;2023-04-25T12:58:48;11.70;99.90
17284;DHT22;8760;52.248;20.952;2023-04-25T13:01:15;11.60;99.90
17284;DHT22;8760;52.248;20.952;2023-04-25T13:03:42;11.60;1.00
17284;DHT22;8760;52.248;20.952;2023-04-25T13:06:09;11.70;99.90
17284;DHT22;8760;52.248;20.952;2023-04-25T13:08:36;11.70;99.90
17284;DHT22;8760;52.248;20.952;2023-04-25T13:11:04;11.70;1.00
17284;DHT22;8760;52.248;20.952;2023-04-25T13:13:32;11.70;1.00
17284;DHT22;8760;52.248;20.952;2023-04-25T13:16:00;11.50;1.00
17284;DHT22;8760;52.248;20.952;2023-04-25T13:18:27;11.50;99.90
17284;DHT22;8760;52.248;20.952;2023-04-25T13:20:54;11.50;1.00
17284;DHT22;8760;52.248;20.952;2023-04-25T13:23:21;11.50;1.00
17284;DHT22;8760;52.248;20.952;2023-04-25T13:25:50;11.60;99.90
17284;DHT22;8760;52.248;20.952;2023-04-25T13:28:17;11.60;1.00
17284;DHT22;8760;52.248;20.952;2023-04-25T13:30:45;11.70;1.00
17284;DHT22;8760;52.248;20.952;2023-04-25T13:33:13;11.70;1.00
17284;DHT22;8760;52.248;20.952;2023-04-25T13:35:40;11.80;99.90
17284;DHT22;8760;52.248;20.952;2023-04-25T13:38:08;11.90;99.90
17284;DHT22;8760;52.248;20.952;2023-04-25T13:40:35;11.90;99.90
17284;DHT22;8760;52.248;20.952;2023-04-25T13:43:02;11.80;99.90
17284;DHT22;8760;52.248;20.952;2023-04-25T13:45:29;11.80;99.90
17284;DHT22;8760;52.248;20.952;2023-04-25T13:47:57;11.90;99.90
17284;DHT22;8760;52.248;20.952;2023-04-25T13:50:24;11.90;1.00
17284;DHT22;8760;52.248;20.952;2023-04-25T13:52:51;12.00;95.80
17284;DHT22;8760;52.248;20.952;2023-04-25T13:55:18;12.00;1.00
17284;DHT22;8760;52.248;20.952;2023-04-25T13:57:45;11.90;86.20
17284;DHT22;8760;52.248;20.952;2023-04-25T14:00:13;11.80;99.90
17284;DHT22;8760;52.248;20.952;2023-04-25T14:02:40;11.90;1.00
17284;DHT22;8760;52.248;20.952;2023-04-25T14:05:09;11.90;99.90
17284;DHT22;8760;52.248;20.952;2023-04-25T14:07:36;11.90;1.00
17284;DHT22;8760;52.248;20.952;2023-04-25T14:10:04;11.90;99.90
17284;DHT22;8760;52.248;20.952;2023-04-25T14:12:32;11.90;99.90
17284;DHT22;8760;52.248;20.952;2023-04-25T14:14:59;11.80;99.90
17284;DHT22;8760;52.248;20.952;2023-04-25T14:17:27;11.70;99.90
17284;DHT22;8760;52.248;20.952;2023-04-25T14:19:54;11.70;99.90
17284;DHT22;8760;52.248;20.952;2023-04-25T14:22:22;11.70;99.90
17284;DHT22;8760;52.248;20.952;2023-04-25T14:24:49;11.60;99.90
17284;DHT22;8760;52.248;20.952;2023-04-25T14:27:16;11.60;99.90
17284;DHT22;8760;52.248;20.952;2023-04-25T14:29:43;11.40;99.90
17284;DHT22;8760;52.248;20.952;2023-04-25T14:32:10;11.40;1.00
17284;DHT22;8760;52.248;20.952;2023-04-25T14:34:37;11.40;1.00
17284;DHT22;8760;52.248;20.952;2023-04-25T14:37:04;11.40;1.00
17284;DHT22;8760;52.248;20.952;2023-04-25T14:39:32;11.40;1.00
17284;DHT22;8760;52.248;20.952;2023-04-25T14:41:59;11.40;1.00
17284;DHT22;8760;52.248;20.952;2023-04-25T14:44:26;11.40;1.00
17284;DHT22;8760;52.248;20.952;2023-04-25T14:46:53;11.40;1.00
17284;DHT22;8760;52.248;20.952;2023-04-25T14:49:20;11.40;1.00
17284;DHT22;8760;52.248;20.952;2023-04-25T14:51:47;11.40;1.00
17284;DHT22;8760;52.248;20.952;2023-04-25T14:54:15;11.30;1.00
17284;DHT22;8760;52.248;20.952;2023-04-25T14:56:44;11.30;1.00
17284;DHT22;8760;52.248;20.952;2023-04-25T14:59:11;11.20;1.00
17284;DHT22;8760;52.248;20.952;2023-04-25T15:01:37;11.20;1.00
17284;DHT22;8760;52.248;20.952;2023-04-25T15:04:04;11.20;96.50
17284;DHT22;8760;52.248;20.952;2023-04-25T15:06:31;11.30;99.90
17284;DHT22;8760;52.248;20.952;2023-04-25T15:08:58;11.30;99.90
17284;DHT22;8760;52.248;20.952;2023-04-25T15:11:25;11.40;1.00
17284;DHT22;8760;52.248;20.952;2023-04-25T15:13:54;11.40;1.00
17284;DHT22;8760;52.248;20.952;2023-04-25T15:16:21;11.40;1.00
17284;DHT22;8760;52.248;20.952;2023-04-25T15:18:48;11.30;1.00
17284;DHT22;8760;52.248;20.952;2023-04-25T15:21:15;11.30;1.00
17284;DHT22;8760;52.248;20.952;2023-04-25T15:23:42;11.20;1.00
17284;DHT22;8760;52.248;20.952;2023-04-25T15:26:09;11.10;1.00
17284;DHT22;8760;52.248;20.952;2023-04-25T15:28:36;11.10;1.00
17284;DHT22;8760;52.248;20.952;2023-04-25T15:31:05;11.10;1.00
17284;DHT22;8760;52.248;20.952;2023-04-25T15:33:31;11.10;1.00
17284;DHT22;8760;52.248;20.952;2023-04-25T15:35:58;11.00;1.00
17284;DHT22;8760;52.248;20.952;2023-04-25T15:38:25;11.00;1.00
17284;DHT22;8760;52.248;20.952;2023-04-25T15:40:52;10.90;1.00